createdAt,value
2023-07-06T01:35:43.806Z,0.00
2023-07-06T01:36:43.744Z,0.00
2023-07-06T01:37:43.723Z,0.00
2023-07-06T01:38:43.733Z,0.00
2023-07-06T01:39:43.704Z,0.00
2023-07-06T01:40:43.690Z,0.00
2023-07-06T01:41:43.690Z,0.00
2023-07-06T01:42:43.710Z,0.00
2023-07-06T01:43:43.670Z,0.00
2023-07-06T01:44:43.648Z,0.00
2023-07-06T01:45:43.655Z,0.00
2023-07-06T01:46:48.672Z,0.00
2023-07-06T01:47:43.645Z,0.00
2023-07-06T01:48:43.604Z,0.00
2023-07-06T01:49:43.593Z,0.00
2023-07-06T01:50:43.596Z,0.00
2023-07-06T01:51:43.596Z,0.00
2023-07-06T01:52:43.583Z,0.00
2023-07-06T01:53:43.545Z,0.00
2023-07-06T01:54:43.542Z,0.00
2023-07-06T01:55:43.524Z,0.00
2023-07-06T01:56:43.530Z,0.00
2023-07-06T01:58:01.087Z,0.00
2023-07-06T01:58:43.495Z,0.00
2023-07-06T01:59:43.481Z,0.00
2023-07-06T02:00:43.532Z,0.00
2023-07-06T02:01:43.477Z,0.00
2023-07-06T02:02:43.563Z,0.00
2023-07-06T02:03:43.448Z,0.00
2023-07-06T02:04:43.425Z,0.00
2023-07-06T02:05:43.421Z,0.00
2023-07-06T02:06:43.424Z,0.00
2023-07-06T02:07:43.430Z,0.00
2023-07-06T02:08:48.410Z,0.00
2023-07-06T02:09:43.389Z,0.00
2023-07-06T02:10:43.358Z,0.00
2023-07-06T02:11:43.356Z,0.00
2023-07-06T02:12:43.338Z,0.00
2023-07-06T02:13:43.406Z,0.00
2023-07-06T02:14:43.310Z,0.00
2023-07-06T02:15:43.331Z,0.00
2023-07-06T02:16:43.325Z,0.00
2023-07-06T02:17:43.379Z,0.00
2023-07-06T02:18:43.266Z,0.00
2023-07-06T02:19:48.275Z,0.00
2023-07-06T02:20:43.269Z,0.00
2023-07-06T02:21:43.261Z,0.00
2023-07-06T02:22:43.237Z,0.00
2023-07-06T02:23:45.311Z,0.00
2023-07-06T02:24:43.200Z,0.00
2023-07-06T02:25:43.203Z,0.00
2023-07-06T02:26:43.188Z,0.00
2023-07-06T02:27:43.180Z,0.00
2023-07-06T02:28:43.165Z,0.00
2023-07-06T02:29:43.170Z,0.00
2023-07-06T02:30:48.189Z,0.00
2023-07-06T02:31:43.130Z,0.00
2023-07-06T02:32:43.138Z,0.00
2023-07-06T02:33:43.115Z,0.00
2023-07-06T02:34:43.090Z,0.00
2023-07-06T02:35:43.098Z,0.00
2023-07-06T02:36:43.060Z,0.00
2023-07-06T02:37:43.060Z,0.00
2023-07-06T02:38:43.039Z,0.00
2023-07-06T02:39:43.074Z,0.00
2023-07-06T02:40:43.028Z,0.00
2023-07-06T02:41:48.033Z,0.00
2023-07-06T02:42:43.373Z,0.00
2023-07-06T02:43:42.984Z,0.00
2023-07-06T02:44:42.982Z,0.00
2023-07-06T02:45:43.000Z,0.00
2023-07-06T02:46:42.962Z,0.00
2023-07-06T02:47:43.036Z,0.00
2023-07-06T02:48:42.926Z,0.00
2023-07-06T02:49:42.925Z,0.00
2023-07-06T02:50:42.907Z,0.00
2023-07-06T02:51:42.915Z,0.00
2023-07-06T02:52:47.904Z,0.00
2023-07-06T02:53:42.886Z,0.00
2023-07-06T02:54:42.872Z,0.00
2023-07-06T02:55:42.883Z,0.00
2023-07-06T02:56:42.846Z,4.00
2023-07-06T02:57:42.850Z,4.00
2023-07-06T02:58:42.829Z,4.00
2023-07-06T02:59:42.834Z,0.00
2023-07-06T03:00:42.795Z,0.00
2023-07-06T03:01:42.846Z,4.00
2023-07-06T03:02:42.840Z,4.00
2023-07-06T03:03:47.826Z,4.00
2023-07-06T03:04:42.750Z,4.00
2023-07-06T03:05:42.757Z,8.00
2023-07-06T03:06:42.731Z,4.00
2023-07-06T03:07:42.717Z,8.00
2023-07-06T03:08:42.715Z,4.00
2023-07-06T03:09:42.712Z,8.00
2023-07-06T03:10:42.683Z,8.00
2023-07-06T03:11:42.754Z,8.00
2023-07-06T03:12:42.673Z,12.00
2023-07-06T03:13:42.704Z,12.00
2023-07-06T03:14:47.657Z,12.00
2023-07-06T03:15:42.643Z,12.00
2023-07-06T03:16:42.698Z,16.00
2023-07-06T03:17:42.737Z,16.00
2023-07-06T03:18:42.605Z,16.00
2023-07-06T03:19:42.584Z,20.00
2023-07-06T03:20:42.582Z,20.00
2023-07-06T03:21:42.574Z,24.00
2023-07-06T03:22:42.570Z,28.00
2023-07-06T03:23:42.551Z,28.00
2023-07-06T03:24:42.529Z,28.00
2023-07-06T03:25:47.541Z,36.00
2023-07-06T03:26:42.601Z,36.00
2023-07-06T03:27:42.532Z,40.00
2023-07-06T03:28:44.038Z,44.00
2023-07-06T03:29:42.473Z,48.00
2023-07-06T03:30:42.463Z,52.00
2023-07-06T03:31:42.529Z,52.00
2023-07-06T03:32:42.532Z,56.00
2023-07-06T03:33:42.444Z,60.00
2023-07-06T03:34:42.417Z,68.00
2023-07-06T03:35:42.409Z,72.00
2023-07-06T03:36:47.425Z,76.00
2023-07-06T03:37:42.397Z,80.00
2023-07-06T03:38:42.384Z,84.00
2023-07-06T03:39:42.387Z,88.00
2023-07-06T03:40:42.353Z,92.00
2023-07-06T03:41:42.351Z,100.00
2023-07-06T03:42:42.340Z,108.00
2023-07-06T03:43:42.349Z,112.00
2023-07-06T03:44:42.308Z,116.00
2023-07-06T03:45:42.416Z,124.00
2023-07-06T03:46:42.303Z,128.00
2023-07-06T03:47:47.650Z,136.00
2023-07-06T03:48:42.269Z,140.00
2023-07-06T03:49:42.251Z,148.00
2023-07-06T03:50:42.244Z,152.00
2023-07-06T03:51:42.263Z,160.00
2023-07-06T03:52:42.228Z,168.00
2023-07-06T03:53:42.210Z,176.00
2023-07-06T03:54:42.221Z,180.00
2023-07-06T03:55:42.297Z,184.00
2023-07-06T03:56:42.187Z,192.00
2023-07-06T03:57:51.204Z,200.00
2023-07-06T03:58:47.196Z,208.00
2023-07-06T03:59:42.148Z,212.00
2023-07-06T04:00:42.139Z,224.00
2023-07-06T04:01:42.168Z,232.00
2023-07-06T04:02:42.124Z,236.00
2023-07-06T04:03:42.161Z,248.00
2023-07-06T04:04:42.093Z,256.00
2023-07-06T04:05:42.089Z,264.00
2023-07-06T04:06:42.087Z,272.00
2023-07-06T04:07:42.055Z,276.00
2023-07-06T04:08:43.351Z,284.00
2023-07-06T04:09:47.059Z,292.00
2023-07-06T04:10:42.052Z,304.00
2023-07-06T04:11:42.015Z,312.00
2023-07-06T04:12:42.013Z,320.00
2023-07-06T04:13:42.042Z,328.00
2023-07-06T04:14:41.999Z,332.00
2023-07-06T04:15:42.044Z,344.00
2023-07-06T04:16:42.019Z,348.00
2023-07-06T04:17:43.085Z,360.00
2023-07-06T04:18:41.932Z,368.00
2023-07-06T04:19:41.934Z,376.00
2023-07-06T04:20:46.948Z,384.00
2023-07-06T04:21:41.914Z,392.00
2023-07-06T04:22:41.886Z,400.00
2023-07-06T04:23:43.836Z,408.00
2023-07-06T04:24:41.891Z,412.00
2023-07-06T04:25:41.860Z,416.00
2023-07-06T04:26:41.843Z,424.00
2023-07-06T04:27:41.851Z,432.00
2023-07-06T04:28:41.884Z,444.00
2023-07-06T04:29:41.819Z,448.00
2023-07-06T04:30:41.821Z,456.00
2023-07-06T04:31:46.940Z,464.00
2023-07-06T04:32:41.790Z,472.00
2023-07-06T04:33:41.762Z,484.00
2023-07-06T04:34:41.789Z,492.00
2023-07-06T04:35:41.744Z,496.00
2023-07-06T04:36:41.734Z,504.00
2023-07-06T04:37:41.725Z,512.00
2023-07-06T04:38:41.720Z,520.00
2023-07-06T04:39:41.705Z,528.00
2023-07-06T04:40:41.707Z,536.00
2023-07-06T04:41:41.683Z,544.00
2023-07-06T04:42:46.706Z,552.00
2023-07-06T04:43:41.677Z,564.00
2023-07-06T04:44:41.641Z,568.00
2023-07-06T04:45:41.630Z,580.00
2023-07-06T04:46:41.718Z,592.00
2023-07-06T04:47:41.628Z,600.00
2023-07-06T04:48:41.662Z,608.00
2023-07-06T04:49:41.584Z,616.00
2023-07-06T04:50:41.738Z,628.00
2023-07-06T04:51:41.560Z,632.00
2023-07-06T04:52:41.577Z,640.00
2023-07-06T04:53:46.571Z,648.00
2023-07-06T04:54:41.537Z,656.00
2023-07-06T04:55:41.514Z,664.00
2023-07-06T04:56:41.522Z,668.00
2023-07-06T04:57:41.519Z,680.00
2023-07-06T04:58:41.515Z,684.00
2023-07-06T04:59:41.477Z,696.00
2023-07-06T05:00:41.682Z,704.00
2023-07-06T05:01:41.455Z,712.00
2023-07-06T05:02:41.520Z,720.00
2023-07-06T05:03:41.497Z,728.00
2023-07-06T05:04:46.481Z,736.00
2023-07-06T05:05:41.589Z,752.00
2023-07-06T05:06:41.412Z,764.00
2023-07-06T05:07:41.419Z,836.00
2023-07-06T05:08:41.373Z,868.00
2023-07-06T05:09:41.383Z,824.00
2023-07-06T05:10:41.403Z,816.00
2023-07-06T05:11:41.355Z,820.00
2023-07-06T05:12:41.349Z,828.00
2023-07-06T05:13:41.372Z,844.00
2023-07-06T05:14:41.310Z,864.00
2023-07-06T05:15:46.366Z,892.00
2023-07-06T05:16:41.358Z,924.00
2023-07-06T05:17:41.314Z,960.00
2023-07-06T05:18:41.303Z,952.00
2023-07-06T05:19:41.255Z,952.00
2023-07-06T05:20:41.239Z,980.00
2023-07-06T05:21:41.245Z,968.00
2023-07-06T05:22:41.323Z,944.00
2023-07-06T05:23:41.213Z,980.00
2023-07-06T05:24:41.198Z,1068.00
2023-07-06T05:25:41.184Z,1196.00
2023-07-06T05:26:46.209Z,1232.00
2023-07-06T05:27:41.159Z,1152.00
2023-07-06T05:28:41.157Z,1144.00
2023-07-06T05:29:41.139Z,1280.00
2023-07-06T05:30:41.162Z,1412.00
2023-07-06T05:31:41.125Z,1464.00
2023-07-06T05:32:41.127Z,1592.00
2023-07-06T05:33:41.091Z,1804.00
2023-07-06T05:34:41.108Z,2116.00
2023-07-06T05:35:41.071Z,2292.00
2023-07-06T05:36:41.094Z,2320.00
2023-07-06T05:37:46.076Z,2132.00
2023-07-06T05:38:41.036Z,2084.00
2023-07-06T05:39:41.024Z,2264.00
2023-07-06T05:40:41.026Z,2392.00
2023-07-06T05:41:41.038Z,2436.00
2023-07-06T05:42:41.002Z,2704.00
2023-07-06T05:43:40.986Z,3212.00
2023-07-06T05:44:40.972Z,3348.00
2023-07-06T05:45:40.971Z,3016.00
2023-07-06T05:46:41.056Z,2936.00
2023-07-06T05:47:41.007Z,3256.00
2023-07-06T05:48:45.952Z,3428.00
2023-07-06T05:49:40.910Z,3196.00
2023-07-06T05:50:40.935Z,2916.00
2023-07-06T05:51:40.891Z,2764.00
2023-07-06T05:52:40.890Z,2340.00
2023-07-06T05:53:40.870Z,2144.00
2023-07-06T05:54:40.863Z,2248.00
2023-07-06T05:55:40.853Z,2068.00
2023-07-06T05:56:40.842Z,1728.00
2023-07-06T05:57:40.822Z,1876.00
2023-07-06T05:58:40.834Z,1800.00
2023-07-06T05:59:45.859Z,1792.00
2023-07-06T06:00:40.801Z,1808.00
2023-07-06T06:01:40.821Z,1860.00
2023-07-06T06:02:40.955Z,1868.00
2023-07-06T06:03:40.798Z,2024.00
2023-07-06T06:04:40.758Z,2052.00
2023-07-06T06:05:40.765Z,1828.00
2023-07-06T06:06:40.743Z,1544.00
2023-07-06T06:07:40.715Z,1476.00
2023-07-06T06:08:40.704Z,1524.00
2023-07-06T06:09:40.697Z,1544.00
2023-07-06T06:10:45.704Z,1568.00
2023-07-06T06:11:40.674Z,1624.00
2023-07-06T06:12:40.660Z,1624.00
2023-07-06T06:13:40.711Z,1604.00
2023-07-06T06:14:40.652Z,1532.00
2023-07-06T06:15:40.623Z,1492.00
2023-07-06T06:16:40.688Z,1528.00
2023-07-06T06:17:40.747Z,1508.00
2023-07-06T06:18:42.532Z,1528.00
2023-07-06T06:19:40.588Z,1568.00
2023-07-06T06:20:40.566Z,1692.00
2023-07-06T06:21:45.612Z,1916.00
2023-07-06T06:22:40.547Z,1952.00
2023-07-06T06:23:40.557Z,1708.00
2023-07-06T06:24:40.547Z,1616.00
2023-07-06T06:25:40.514Z,1632.00
2023-07-06T06:26:40.524Z,1672.00
2023-07-06T06:27:40.530Z,1732.00
2023-07-06T06:28:40.491Z,1864.00
2023-07-06T06:29:40.473Z,2012.00
2023-07-06T06:30:40.464Z,2448.00
2023-07-06T06:31:40.480Z,3320.00
2023-07-06T06:32:45.507Z,4292.00
2023-07-06T06:33:40.437Z,4900.00
2023-07-06T06:34:40.411Z,4880.00
2023-07-06T06:35:40.418Z,5024.00
2023-07-06T06:36:40.486Z,4984.00
2023-07-06T06:37:40.416Z,5260.00
2023-07-06T06:38:40.388Z,5540.00
2023-07-06T06:39:40.363Z,6536.00
2023-07-06T06:40:40.348Z,7940.00
2023-07-06T06:41:40.357Z,8588.00
2023-07-06T06:42:40.351Z,9108.00
2023-07-06T06:43:45.366Z,9624.00
2023-07-06T06:44:40.308Z,9648.00
2023-07-06T06:45:40.293Z,9652.00
2023-07-06T06:46:40.308Z,9132.00
2023-07-06T06:47:40.334Z,8400.00
2023-07-06T06:48:40.261Z,5304.00
2023-07-06T06:49:40.263Z,2480.00
2023-07-06T06:50:40.239Z,2408.00
2023-07-06T06:51:40.253Z,2560.00
2023-07-06T06:52:40.247Z,2592.00
2023-07-06T06:53:40.245Z,2516.00
2023-07-06T06:54:45.247Z,2588.00
2023-07-06T06:55:40.183Z,2756.00
2023-07-06T06:56:40.193Z,2268.00
2023-07-06T06:57:40.178Z,2236.00
2023-07-06T06:58:40.507Z,2364.00
2023-07-06T06:59:40.140Z,2744.00
2023-07-06T07:00:40.186Z,3008.00
2023-07-06T07:01:40.191Z,2536.00
2023-07-06T07:02:40.151Z,2284.00
2023-07-06T07:03:40.144Z,2812.00
2023-07-06T07:04:40.100Z,1792.00
2023-07-06T07:05:45.094Z,1780.00
2023-07-06T07:06:40.115Z,1892.00
2023-07-06T07:07:40.065Z,1944.00
2023-07-06T07:08:40.054Z,1944.00
2023-07-06T07:09:40.052Z,1996.00
2023-07-06T07:10:40.039Z,2028.00
2023-07-06T07:11:40.026Z,2076.00
2023-07-06T07:12:40.023Z,2488.00
2023-07-06T07:13:40.020Z,2436.00
2023-07-06T07:14:39.975Z,2492.00
2023-07-06T07:15:39.976Z,3056.00
2023-07-06T07:16:45.040Z,2936.00
2023-07-06T07:17:39.974Z,2460.00
2023-07-06T07:18:39.958Z,2392.00
2023-07-06T07:19:39.920Z,2600.00
2023-07-06T07:20:39.922Z,2600.00
2023-07-06T07:21:39.907Z,2184.00
2023-07-06T07:22:39.886Z,2064.00
2023-07-06T07:23:39.873Z,2096.00
2023-07-06T07:24:39.939Z,2108.00
2023-07-06T07:25:39.881Z,2188.00
2023-07-06T07:26:39.845Z,2244.00
2023-07-06T07:27:44.850Z,2248.00
2023-07-06T07:28:39.817Z,2460.00
2023-07-06T07:29:39.805Z,2472.00
2023-07-06T07:30:39.818Z,2784.00
2023-07-06T07:31:39.850Z,4232.00
2023-07-06T07:32:39.828Z,3184.00
2023-07-06T07:33:39.760Z,2492.00
2023-07-06T07:34:39.751Z,2392.00
2023-07-06T07:35:39.748Z,2840.00
2023-07-06T07:36:39.750Z,2436.00
2023-07-06T07:37:39.747Z,2292.00
2023-07-06T07:38:44.728Z,2260.00
2023-07-06T07:39:39.715Z,2324.00
2023-07-06T07:40:39.696Z,2352.00
2023-07-06T07:41:39.693Z,2396.00
2023-07-06T07:42:39.684Z,2564.00
2023-07-06T07:43:39.653Z,3252.00
2023-07-06T07:44:39.654Z,3668.00
2023-07-06T07:45:39.668Z,3960.00
2023-07-06T07:46:39.621Z,3652.00
2023-07-06T07:47:39.631Z,4504.00
2023-07-06T07:48:39.616Z,4612.00
2023-07-06T07:49:44.620Z,3920.00
2023-07-06T07:50:39.576Z,4836.00
2023-07-06T07:51:39.565Z,4736.00
2023-07-06T07:52:39.554Z,3644.00
2023-07-06T07:53:40.636Z,3592.00
2023-07-06T07:54:39.558Z,3024.00
2023-07-06T07:55:39.524Z,2704.00
2023-07-06T07:56:39.513Z,2776.00
2023-07-06T07:57:39.524Z,2432.00
2023-07-06T07:58:39.503Z,2400.00
2023-07-06T07:59:39.480Z,2384.00
2023-07-06T08:00:44.500Z,2416.00
2023-07-06T08:01:39.491Z,2424.00
2023-07-06T08:02:39.479Z,2424.00
2023-07-06T08:03:39.482Z,2480.00
2023-07-06T08:04:40.380Z,2604.00
2023-07-06T08:05:39.414Z,2700.00
2023-07-06T08:06:39.427Z,2828.00
2023-07-06T08:07:39.407Z,2984.00
2023-07-06T08:08:39.416Z,3192.00
2023-07-06T08:09:39.373Z,3444.00
2023-07-06T08:10:39.357Z,3556.00
2023-07-06T08:11:44.377Z,3572.00
2023-07-06T08:12:39.371Z,4052.00
2023-07-06T08:13:39.389Z,7260.00
2023-07-06T08:14:39.322Z,8240.00
2023-07-06T08:15:39.312Z,6312.00
2023-07-06T08:16:39.403Z,5744.00
2023-07-06T08:17:39.312Z,4584.00
2023-07-06T08:18:39.314Z,11252.00
2023-07-06T08:20:01.049Z,12052.00
2023-07-06T08:20:55.095Z,11356.00
2023-07-06T08:22:44.291Z,21408.00
2023-07-06T08:23:39.220Z,2508.00
2023-07-06T08:24:39.220Z,13112.00
2023-07-06T08:25:39.218Z,6460.00
2023-07-06T08:26:39.188Z,7580.00
2023-07-06T08:27:39.191Z,9052.00
2023-07-06T08:28:39.161Z,11296.00
2023-07-06T08:29:39.184Z,6972.00
2023-07-06T08:30:39.146Z,7348.00
2023-07-06T08:31:39.224Z,11316.00
2023-07-06T08:32:39.213Z,21056.00
2023-07-06T08:33:44.161Z,29696.00
2023-07-06T08:34:39.099Z,14620.00
2023-07-06T08:35:39.089Z,11036.00
2023-07-06T08:36:39.081Z,12872.00
2023-07-06T08:37:39.089Z,37152.00
2023-07-06T08:38:39.053Z,61984.00
2023-07-06T08:39:39.044Z,77440.00
2023-07-06T08:40:39.046Z,68576.00
2023-07-06T08:41:39.027Z,19552.00
2023-07-06T08:42:39.008Z,28032.00
2023-07-06T08:43:39.005Z,4808.00
2023-07-06T08:44:44.022Z,6304.00
2023-07-06T08:45:38.999Z,5436.00
2023-07-06T08:46:38.984Z,5100.00
2023-07-06T08:47:38.991Z,4616.00
2023-07-06T08:48:38.938Z,4836.00
2023-07-06T08:49:38.948Z,8288.00
2023-07-06T08:50:38.927Z,27104.00
2023-07-06T08:51:38.907Z,52544.00
2023-07-06T08:52:38.892Z,52736.00
2023-07-06T08:53:38.884Z,30496.00
2023-07-06T08:54:38.874Z,12400.00
2023-07-06T08:55:43.936Z,5728.00
2023-07-06T08:56:38.862Z,29280.00
2023-07-06T08:57:38.845Z,10652.00
2023-07-06T08:58:38.829Z,13532.00
2023-07-06T08:59:38.834Z,22912.00
2023-07-06T09:00:38.911Z,3372.00
2023-07-06T09:01:38.964Z,3336.00
2023-07-06T09:02:38.831Z,3032.00
2023-07-06T09:03:38.782Z,4136.00
2023-07-06T09:04:38.773Z,4036.00
2023-07-06T09:05:38.756Z,3236.00
2023-07-06T09:06:43.763Z,2856.00
2023-07-06T09:07:38.752Z,2964.00
2023-07-06T09:08:38.753Z,3088.00
2023-07-06T09:09:38.741Z,3896.00
2023-07-06T09:10:38.700Z,3168.00
2023-07-06T09:11:38.702Z,3132.00
2023-07-06T09:12:38.674Z,5024.00
2023-07-06T09:13:38.764Z,7508.00
2023-07-06T09:14:38.670Z,17920.00
2023-07-06T09:15:38.645Z,20864.00
2023-07-06T09:16:38.701Z,4920.00
2023-07-06T09:17:43.702Z,12116.00
2023-07-06T09:18:38.643Z,28320.00
2023-07-06T09:19:38.630Z,16352.00
2023-07-06T09:20:38.589Z,3768.00
2023-07-06T09:21:38.589Z,3724.00
2023-07-06T09:22:38.570Z,3688.00
2023-07-06T09:23:38.574Z,4076.00
2023-07-06T09:24:38.550Z,4048.00
2023-07-06T09:25:38.684Z,3808.00
2023-07-06T09:26:38.530Z,5256.00
2023-07-06T09:27:38.561Z,4208.00
2023-07-06T09:28:43.533Z,3692.00
2023-07-06T09:29:38.494Z,4020.00
2023-07-06T09:30:38.512Z,3316.00
2023-07-06T09:31:38.498Z,4936.00
2023-07-06T09:32:38.526Z,6476.00
2023-07-06T09:33:38.464Z,23232.00
2023-07-06T09:34:38.439Z,20544.00
2023-07-06T09:35:38.765Z,49056.00
2023-07-06T09:36:38.419Z,42656.00
2023-07-06T09:37:38.428Z,56896.00
2023-07-06T09:38:38.402Z,39936.00
2023-07-06T09:39:43.410Z,41728.00
2023-07-06T09:40:38.378Z,29024.00
2023-07-06T09:41:38.377Z,35168.00
2023-07-06T09:42:38.358Z,32096.00
2023-07-06T09:43:38.397Z,13864.00
2023-07-06T09:44:38.331Z,9588.00
2023-07-06T09:45:38.318Z,14280.00
2023-07-06T09:46:38.367Z,7628.00
2023-07-06T09:47:38.345Z,11196.00
2023-07-06T09:48:38.307Z,9768.00
2023-07-06T09:49:38.315Z,7900.00
2023-07-06T09:50:43.283Z,18560.00
2023-07-06T09:51:39.872Z,9024.00
2023-07-06T09:52:38.272Z,7416.00
2023-07-06T09:53:38.230Z,34400.00
2023-07-06T09:54:38.220Z,15520.00
2023-07-06T09:55:38.235Z,5248.00
2023-07-06T09:56:38.205Z,4712.00
2023-07-06T09:57:38.190Z,7352.00
2023-07-06T09:58:38.170Z,6048.00
2023-07-06T09:59:38.163Z,6784.00
2023-07-06T10:00:38.196Z,21248.00
2023-07-06T10:01:38.175Z,25568.00
2023-07-06T10:02:38.172Z,42432.00
2023-07-06T10:03:43.193Z,34976.00
2023-07-06T10:04:38.156Z,19072.00
2023-07-06T10:05:38.214Z,4088.00
2023-07-06T10:06:38.101Z,3468.00
2023-07-06T10:07:38.130Z,3492.00
2023-07-06T10:08:38.058Z,3788.00
2023-07-06T10:09:38.046Z,4004.00
2023-07-06T10:10:38.047Z,4272.00
2023-07-06T10:11:38.033Z,4536.00
2023-07-06T10:12:38.014Z,4792.00
2023-07-06T10:13:38.053Z,5108.00
2023-07-06T10:14:37.995Z,4812.00
2023-07-06T10:15:38.006Z,4696.00
2023-07-06T10:16:43.011Z,4808.00
2023-07-06T10:17:38.007Z,4824.00
2023-07-06T10:18:37.948Z,4848.00
2023-07-06T10:19:37.985Z,5028.00
2023-07-06T10:20:37.936Z,5628.00
2023-07-06T10:21:37.914Z,5788.00
2023-07-06T10:22:37.911Z,5800.00
2023-07-06T10:23:37.895Z,5852.00
2023-07-06T10:24:37.889Z,5436.00
2023-07-06T10:25:37.907Z,4984.00
2023-07-06T10:26:37.858Z,4992.00
2023-07-06T10:27:42.874Z,4376.00
2023-07-06T10:28:37.848Z,4256.00
2023-07-06T10:29:37.875Z,4376.00
2023-07-06T10:30:37.829Z,5140.00
2023-07-06T10:31:37.841Z,6496.00
2023-07-06T10:32:37.850Z,6808.00
2023-07-06T10:33:37.788Z,7392.00
2023-07-06T10:34:37.783Z,8416.00
2023-07-06T10:35:37.781Z,8956.00
2023-07-06T10:36:37.764Z,9336.00
2023-07-06T10:37:37.775Z,9752.00
2023-07-06T10:38:42.763Z,9936.00
2023-07-06T10:39:37.728Z,9784.00
2023-07-06T10:40:37.761Z,9856.00
2023-07-06T10:41:37.713Z,9680.00
2023-07-06T10:42:37.684Z,8480.00
2023-07-06T10:43:37.685Z,7844.00
2023-07-06T10:44:37.680Z,7724.00
2023-07-06T10:45:37.680Z,7844.00
2023-07-06T10:46:37.823Z,8588.00
2023-07-06T10:47:37.664Z,9988.00
2023-07-06T10:48:37.639Z,9220.00
2023-07-06T10:49:42.672Z,9004.00
2023-07-06T10:50:37.597Z,9280.00
2023-07-06T10:51:37.615Z,11832.00
2023-07-06T10:52:37.599Z,23488.00
2023-07-06T10:53:37.588Z,16064.00
2023-07-06T10:54:37.572Z,8492.00
2023-07-06T10:55:37.573Z,10128.00
2023-07-06T10:56:37.530Z,5720.00
2023-07-06T10:57:37.620Z,5600.00
2023-07-06T10:58:37.520Z,6144.00
2023-07-06T10:59:37.516Z,11796.00
2023-07-06T11:00:42.522Z,14120.00
2023-07-06T11:01:37.537Z,9004.00
2023-07-06T11:02:37.519Z,10012.00
2023-07-06T11:03:37.468Z,13196.00
2023-07-06T11:04:37.462Z,12408.00
2023-07-06T11:05:38.064Z,11960.00
2023-07-06T11:06:37.430Z,22432.00
2023-07-06T11:07:37.451Z,20224.00
2023-07-06T11:08:37.403Z,18176.00
2023-07-06T11:09:37.389Z,31936.00
2023-07-06T11:10:37.377Z,14272.00
2023-07-06T11:11:42.400Z,12308.00
2023-07-06T11:12:37.364Z,13488.00
2023-07-06T11:13:37.398Z,40320.00
2023-07-06T11:14:37.340Z,14168.00
2023-07-06T11:15:37.335Z,26304.00
2023-07-06T11:16:37.400Z,19808.00
2023-07-06T11:17:37.349Z,61280.00
2023-07-06T11:18:37.345Z,9372.00
2023-07-06T11:19:37.303Z,66624.00
2023-07-06T11:20:37.266Z,5728.00
2023-07-06T11:21:37.281Z,3988.00
2023-07-06T11:22:42.288Z,3408.00
2023-07-06T11:23:37.258Z,3144.00
2023-07-06T11:24:37.226Z,3072.00
2023-07-06T11:25:37.234Z,3124.00
2023-07-06T11:26:37.216Z,4056.00
2023-07-06T11:27:37.194Z,4732.00
2023-07-06T11:28:37.177Z,12716.00
2023-07-06T11:29:37.168Z,22304.00
2023-07-06T11:30:37.164Z,99168.00
2023-07-06T11:31:37.195Z,97376.00
2023-07-06T11:32:37.155Z,7012.00
2023-07-06T11:33:42.146Z,25216.00
2023-07-06T11:34:39.314Z,10748.00
2023-07-06T11:35:37.137Z,7600.00
2023-07-06T11:36:37.104Z,8196.00
2023-07-06T11:37:49.423Z,7184.00
2023-07-06T11:38:37.097Z,7560.00
2023-07-06T11:39:37.069Z,8188.00
2023-07-06T11:40:37.072Z,5944.00
2023-07-06T11:41:37.039Z,5732.00
2023-07-06T11:42:37.031Z,7920.00
2023-07-06T11:43:37.065Z,6416.00
2023-07-06T11:44:37.016Z,7260.00
2023-07-06T11:45:37.006Z,99264.00
2023-07-06T11:46:42.081Z,8204.00
2023-07-06T11:47:37.040Z,5512.00
2023-07-06T11:48:36.986Z,4852.00
2023-07-06T11:49:37.016Z,4832.00
2023-07-06T11:50:36.944Z,6420.00
2023-07-06T11:51:36.934Z,89664.00
2023-07-06T11:52:36.936Z,64032.00
2023-07-06T11:53:36.916Z,99584.00
2023-07-06T11:54:36.963Z,92864.00
2023-07-06T11:55:36.930Z,35936.00
2023-07-06T11:56:36.933Z,67104.00
2023-07-06T11:57:36.866Z,36480.00
2023-07-06T11:58:36.877Z,43520.00
2023-07-06T11:59:41.958Z,94816.00
2023-07-06T12:00:36.859Z,33248.00
2023-07-06T12:01:36.937Z,96448.00
2023-07-06T12:02:36.836Z,7520.00
2023-07-06T12:03:36.916Z,7780.00
2023-07-06T12:04:36.839Z,5112.00
2023-07-06T12:05:36.792Z,5104.00
2023-07-06T12:06:36.770Z,5364.00
2023-07-06T12:07:36.803Z,5348.00
2023-07-06T12:08:37.084Z,5200.00
2023-07-06T12:09:36.739Z,5296.00
2023-07-06T12:10:36.758Z,6560.00
2023-07-06T12:11:36.727Z,6192.00
2023-07-06T12:12:41.773Z,6136.00
2023-07-06T12:13:36.777Z,6248.00
2023-07-06T12:14:36.708Z,6408.00
2023-07-06T12:15:36.714Z,7248.00
2023-07-06T12:16:36.780Z,6992.00
2023-07-06T12:17:36.729Z,9912.00
2023-07-06T12:18:36.675Z,21792.00
2023-07-06T12:19:36.670Z,37056.00
2023-07-06T12:20:36.642Z,54400.00
2023-07-06T12:21:36.607Z,102688.00
2023-07-06T12:22:36.614Z,102368.00
2023-07-06T12:23:36.610Z,102176.00
2023-07-06T12:24:36.584Z,105056.00
2023-07-06T12:25:41.633Z,78720.00
2023-07-06T12:26:36.578Z,26464.00
2023-07-06T12:27:36.575Z,5308.00
2023-07-06T12:28:36.536Z,4596.00
2023-07-06T12:29:36.530Z,4260.00
2023-07-06T12:30:36.534Z,4116.00
2023-07-06T12:31:36.643Z,4152.00
2023-07-06T12:32:37.032Z,4240.00
2023-07-06T12:33:36.476Z,4088.00
2023-07-06T12:34:36.509Z,3804.00
2023-07-06T12:35:36.459Z,3808.00
2023-07-06T12:36:36.488Z,3860.00
2023-07-06T12:37:36.456Z,4016.00
2023-07-06T12:38:41.452Z,4312.00
2023-07-06T12:39:36.469Z,5044.00
2023-07-06T12:40:36.408Z,5664.00
2023-07-06T12:41:36.428Z,6404.00
2023-07-06T12:42:36.392Z,6460.00
2023-07-06T12:43:36.403Z,5596.00
2023-07-06T12:44:36.364Z,5308.00
2023-07-06T12:45:36.393Z,5384.00
2023-07-06T12:46:36.477Z,5036.00
2023-07-06T12:47:36.383Z,4744.00
2023-07-06T12:48:36.330Z,4524.00
2023-07-06T12:49:41.331Z,3952.00
2023-07-06T12:50:36.372Z,3628.00
2023-07-06T12:51:36.324Z,3592.00
2023-07-06T12:52:36.270Z,3528.00
2023-07-06T12:53:36.264Z,3524.00
2023-07-06T12:54:36.249Z,3516.00
2023-07-06T12:55:36.250Z,3124.00
2023-07-06T12:56:36.233Z,3060.00
2023-07-06T12:57:36.253Z,3476.00
2023-07-06T12:58:36.209Z,3712.00
2023-07-06T12:59:36.203Z,4268.00
2023-07-06T13:00:36.238Z,4356.00
2023-07-06T13:01:36.193Z,4212.00
2023-07-06T13:02:41.294Z,3952.00
2023-07-06T13:03:36.174Z,3944.00
2023-07-06T13:04:36.183Z,3580.00
2023-07-06T13:05:36.142Z,2744.00
2023-07-06T13:06:36.122Z,2988.00
2023-07-06T13:07:36.108Z,3276.00
2023-07-06T13:08:36.116Z,3512.00
2023-07-06T13:09:36.095Z,3628.00
2023-07-06T13:10:36.086Z,3464.00
2023-07-06T13:11:36.063Z,3384.00
2023-07-06T13:12:36.059Z,3260.00
2023-07-06T13:13:36.099Z,3280.00
2023-07-06T13:14:36.089Z,3500.00
2023-07-06T13:15:41.139Z,3688.00
2023-07-06T13:16:36.162Z,3772.00
2023-07-06T13:17:36.074Z,3444.00
2023-07-06T13:18:35.995Z,3432.00
2023-07-06T13:19:35.987Z,3392.00
2023-07-06T13:20:36.000Z,3368.00
2023-07-06T13:21:36.016Z,3424.00
2023-07-06T13:22:35.956Z,3428.00
2023-07-06T13:23:35.950Z,3456.00
2023-07-06T13:24:35.937Z,3744.00
2023-07-06T13:25:35.926Z,3932.00
2023-07-06T13:26:40.954Z,3952.00
2023-07-06T13:27:35.916Z,4260.00
2023-07-06T13:28:35.897Z,4804.00
2023-07-06T13:29:35.925Z,5104.00
2023-07-06T13:30:35.889Z,5044.00
2023-07-06T13:31:52.528Z,4692.00
2023-07-06T13:32:35.887Z,4028.00
2023-07-06T13:33:35.862Z,3616.00
2023-07-06T13:34:35.863Z,3356.00
2023-07-06T13:35:35.809Z,3016.00
2023-07-06T13:36:35.800Z,2788.00
2023-07-06T13:37:40.825Z,2404.00
2023-07-06T13:38:35.795Z,2584.00
2023-07-06T13:39:35.783Z,2532.00
2023-07-06T13:40:35.756Z,2468.00
2023-07-06T13:41:35.744Z,2252.00
2023-07-06T13:42:35.750Z,1976.00
2023-07-06T13:43:35.731Z,2572.00
2023-07-06T13:44:35.730Z,2920.00
2023-07-06T13:45:35.748Z,2896.00
2023-07-06T13:46:35.718Z,2764.00
2023-07-06T13:47:35.741Z,2196.00
2023-07-06T13:48:40.689Z,2148.00
2023-07-06T13:49:35.654Z,2164.00
2023-07-06T13:50:35.647Z,2004.00
2023-07-06T13:51:35.662Z,2056.00
2023-07-06T13:52:35.636Z,1892.00